createdAt,value
2018-08-30T00:02:00.080Z,47.93
2018-08-30T00:04:28.227Z,47.91
2018-08-30T00:06:57.295Z,47.42
2018-08-30T00:09:26.376Z,47.58
2018-08-30T00:11:54.650Z,47.11
2018-08-30T00:14:23.243Z,47.52
2018-08-30T00:16:51.467Z,46.96
2018-08-30T00:19:19.693Z,47.35
2018-08-30T00:21:48.078Z,48.03
2018-08-30T00:24:16.336Z,47.88
2018-08-30T00:26:44.521Z,47.47
2018-08-30T00:29:12.702Z,47.34
2018-08-30T00:31:40.868Z,47.42
2018-08-30T00:34:09.148Z,47.58
2018-08-30T00:36:37.369Z,47.81
2018-08-30T00:39:08.655Z,46.91
2018-08-30T00:41:37.171Z,46.86
2018-08-30T00:44:05.363Z,46.96
2018-08-30T00:46:33.667Z,47.66
2018-08-30T00:49:01.857Z,47.20
2018-08-30T00:51:30.474Z,47.46
2018-08-30T00:53:58.639Z,47.30
2018-08-30T00:56:26.926Z,48.05
2018-08-30T00:58:55.090Z,47.24
2018-08-30T01:01:23.404Z,47.80
2018-08-30T01:03:51.582Z,47.72
2018-08-30T01:06:19.854Z,47.59
2018-08-30T01:08:48.954Z,47.51
2018-08-30T01:11:17.272Z,47.66
2018-08-30T01:13:46.132Z,46.98
2018-08-30T01:16:14.418Z,46.39
2018-08-30T01:18:42.561Z,46.78
2018-08-30T01:21:11.388Z,47.10
2018-08-30T01:23:39.948Z,46.40
2018-08-30T01:26:08.148Z,47.26
2018-08-30T01:28:36.440Z,47.56
2018-08-30T01:31:05.050Z,47.16
2018-08-30T01:33:33.531Z,47.66
2018-08-30T01:36:01.894Z,48.26
2018-08-30T01:38:30.188Z,49.80
2018-08-30T01:40:58.388Z,49.78
2018-08-30T01:43:26.663Z,49.88
2018-08-30T01:45:54.853Z,49.93
2018-08-30T01:48:23.210Z,48.92
2018-08-30T01:50:51.420Z,49.20
2018-08-30T01:53:20.273Z,48.54
2018-08-30T01:55:49.049Z,48.17
2018-08-30T01:58:17.973Z,48.48
2018-08-30T02:00:46.141Z,48.67
2018-08-30T02:03:14.404Z,49.26
2018-08-30T02:05:42.763Z,49.94
2018-08-30T02:08:11.871Z,49.21
2018-08-30T02:10:40.047Z,49.23
2018-08-30T02:13:08.370Z,49.72
2018-08-30T02:15:36.593Z,50.00
2018-08-30T02:18:04.919Z,50.17
2018-08-30T02:20:33.114Z,49.30
2018-08-30T02:23:01.439Z,50.00
2018-08-30T02:25:29.563Z,49.87
2018-08-30T02:27:58.771Z,50.08
2018-08-30T02:30:26.892Z,50.23
2018-08-30T02:32:55.209Z,50.01
2018-08-30T02:35:23.374Z,50.78
2018-08-30T02:37:52.337Z,50.45
2018-08-30T02:40:20.510Z,50.27
2018-08-30T02:42:49.543Z,50.59
2018-08-30T02:45:17.672Z,50.75
2018-08-30T02:47:46.237Z,51.25
2018-08-30T02:50:14.781Z,51.21
2018-08-30T02:52:43.159Z,51.26
2018-08-30T02:55:12.194Z,51.75
2018-08-30T02:57:40.602Z,51.28
2018-08-30T03:00:08.785Z,51.67
2018-08-30T03:02:36.986Z,52.32
2018-08-30T03:05:05.255Z,52.70
2018-08-30T03:07:33.563Z,53.25
2018-08-30T03:10:02.910Z,53.65
2018-08-30T03:12:31.870Z,53.63
2018-08-30T03:15:10.926Z,53.53
2018-08-30T03:17:39.264Z,53.96
2018-08-30T03:20:09.731Z,53.89
2018-08-30T03:22:39.371Z,54.44
2018-08-30T03:25:07.734Z,54.26
2018-08-30T03:27:36.076Z,55.10
2018-08-30T03:30:05.594Z,55.98
2018-08-30T03:32:33.899Z,56.61
2018-08-30T03:35:02.146Z,56.12
2018-08-30T03:37:30.451Z,56.04
2018-08-30T03:39:58.542Z,56.70
2018-08-30T03:42:26.726Z,56.30
2018-08-30T03:44:54.918Z,56.86
2018-08-30T03:47:23.146Z,57.00
2018-08-30T03:49:51.260Z,57.92
2018-08-30T03:52:19.390Z,57.29
2018-08-30T03:54:47.509Z,57.34
2018-08-30T03:57:15.580Z,57.72
2018-08-30T03:59:43.880Z,58.32
2018-08-30T04:02:12.089Z,59.25
2018-08-30T04:04:40.309Z,59.95
2018-08-30T04:07:08.573Z,61.80
2018-08-30T04:09:36.834Z,62.69
2018-08-30T04:12:05.759Z,62.93
2018-08-30T04:14:33.949Z,63.11
2018-08-30T04:17:02.462Z,63.42
2018-08-30T04:19:30.800Z,63.57
2018-08-30T04:21:59.077Z,64.42
2018-08-30T04:24:27.253Z,65.13
2018-08-30T04:26:55.598Z,65.50
2018-08-30T04:29:23.705Z,64.47
2018-08-30T04:31:51.925Z,64.58
2018-08-30T04:34:20.166Z,63.67
2018-08-30T04:36:48.431Z,65.00
2018-08-30T04:39:17.144Z,64.46
2018-08-30T04:41:45.795Z,65.20
2018-08-30T04:44:14.016Z,64.61
2018-08-30T04:46:42.237Z,63.63
2018-08-30T04:49:10.350Z,64.05
2018-08-30T04:51:38.549Z,63.65
2018-08-30T04:54:06.737Z,64.22
2018-08-30T04:56:34.983Z,63.64
2018-08-30T04:59:03.233Z,64.26
2018-08-30T05:01:31.417Z,64.04
2018-08-30T05:03:59.663Z,63.64
2018-08-30T05:06:27.863Z,63.42
2018-08-30T05:08:56.421Z,63.53
2018-08-30T05:11:24.646Z,63.03
2018-08-30T05:13:52.777Z,63.25
2018-08-30T05:16:21.002Z,63.96
2018-08-30T05:18:49.131Z,64.17
2018-08-30T05:21:17.327Z,64.65
2018-08-30T05:23:45.556Z,65.71
2018-08-30T05:26:13.844Z,67.69
2018-08-30T05:28:42.098Z,68.88
2018-08-30T05:31:10.402Z,70.49
2018-08-30T05:33:38.569Z,69.17
2018-08-30T05:36:06.777Z,69.39
2018-08-30T05:38:35.001Z,70.30
2018-08-30T05:41:03.271Z,70.21
2018-08-30T05:43:31.385Z,71.64
2018-08-30T05:45:59.749Z,70.88
2018-08-30T05:48:28.025Z,71.58
2018-08-30T05:50:56.186Z,71.22
2018-08-30T05:53:24.270Z,71.24
2018-08-30T05:55:52.629Z,70.39
2018-08-30T05:58:21.530Z,70.86
2018-08-30T06:00:49.659Z,69.72
2018-08-30T06:03:17.899Z,68.97
2018-08-30T06:05:46.045Z,68.76
2018-08-30T06:08:14.304Z,68.87
2018-08-30T06:10:42.773Z,69.30
2018-08-30T06:13:10.884Z,68.58
2018-08-30T06:15:39.117Z,67.09
2018-08-30T06:18:08.693Z,66.96
2018-08-30T06:20:36.891Z,67.11
2018-08-30T06:23:05.091Z,68.51
2018-08-30T06:25:33.373Z,68.32
2018-08-30T06:28:01.549Z,68.73
2018-08-30T06:30:29.863Z,68.33
2018-08-30T06:32:58.181Z,68.51
2018-08-30T06:35:26.317Z,68.46
2018-08-30T06:37:54.503Z,68.46
2018-08-30T06:40:22.843Z,67.22
2018-08-30T06:42:51.291Z,66.23
2018-08-30T06:45:19.562Z,67.16
2018-08-30T06:47:47.891Z,66.06
2018-08-30T06:50:16.343Z,66.64
2018-08-30T06:52:44.711Z,66.56
2018-08-30T06:55:12.925Z,66.62
2018-08-30T06:57:41.210Z,66.54
2018-08-30T07:00:09.472Z,67.82
2018-08-30T07:02:37.660Z,67.08
2018-08-30T07:05:06.407Z,66.37
2018-08-30T07:07:34.526Z,67.29
2018-08-30T07:10:06.676Z,67.88
2018-08-30T07:12:35.004Z,67.59
2018-08-30T07:15:03.543Z,66.78
2018-08-30T07:17:31.888Z,66.94
2018-08-30T07:20:00.043Z,66.57
2018-08-30T07:22:28.454Z,67.68
2018-08-30T07:24:56.922Z,65.03
2018-08-30T07:27:25.516Z,65.36
2018-08-30T07:29:53.864Z,65.85
2018-08-30T07:32:22.005Z,65.63
2018-08-30T07:34:50.201Z,64.92
2018-08-30T07:37:19.220Z,65.14
2018-08-30T07:39:47.424Z,65.05
2018-08-30T07:42:15.581Z,65.37
2018-08-30T07:44:43.782Z,65.12
2018-08-30T07:47:12.096Z,64.19
2018-08-30T07:49:40.303Z,61.83
2018-08-30T07:52:09.099Z,61.97
2018-08-30T07:54:37.463Z,61.08
2018-08-30T07:57:06.167Z,60.76
2018-08-30T07:59:34.807Z,60.18
2018-08-30T08:02:03.109Z,59.71
2018-08-30T08:04:31.361Z,57.77
2018-08-30T08:07:02.559Z,56.27
2018-08-30T08:09:31.180Z,54.78
2018-08-30T08:11:59.685Z,55.31
2018-08-30T08:14:28.088Z,54.26
2018-08-30T08:16:56.432Z,53.81
2018-08-30T08:19:24.679Z,54.23
2018-08-30T08:21:52.951Z,54.14
2018-08-30T08:24:21.241Z,54.56
2018-08-30T08:26:49.586Z,55.59
2018-08-30T08:29:17.875Z,55.48
2018-08-30T08:31:46.101Z,56.33
2018-08-30T08:34:14.431Z,58.69
2018-08-30T08:36:42.699Z,57.47
2018-08-30T08:39:11.161Z,60.02
2018-08-30T08:41:39.452Z,59.77
2018-08-30T08:44:07.761Z,61.20
2018-08-30T08:46:35.976Z,61.60
2018-08-30T08:49:04.320Z,62.60
2018-08-30T08:51:32.606Z,63.27
2018-08-30T08:54:01.324Z,63.10
2018-08-30T08:56:29.600Z,63.63
2018-08-30T08:58:58.341Z,64.98
2018-08-30T09:01:26.577Z,63.84
2018-08-30T09:03:54.840Z,64.13
2018-08-30T09:06:23.085Z,64.81
2018-08-30T09:08:51.281Z,66.33
2018-08-30T09:11:19.525Z,66.50
2018-08-30T09:13:47.720Z,67.25
2018-08-30T09:16:15.964Z,66.28
2018-08-30T09:18:44.272Z,65.43
2018-08-30T09:21:12.551Z,66.43
2018-08-30T09:23:40.771Z,67.12
2018-08-30T09:26:09.595Z,66.93
2018-08-30T09:28:37.843Z,68.41
2018-08-30T09:31:06.356Z,69.64
2018-08-30T09:33:35.333Z,69.76
2018-08-30T09:36:03.844Z,70.55
2018-08-30T09:38:32.130Z,71.88
2018-08-30T09:41:00.410Z,72.62
2018-08-30T09:43:28.774Z,73.38
2018-08-30T09:45:57.225Z,73.95
2018-08-30T09:48:26.085Z,73.53
2018-08-30T09:50:54.418Z,76.12
2018-08-30T09:53:22.704Z,73.92
2018-08-30T09:55:50.948Z,72.99
2018-08-30T09:58:19.051Z,73.47
2018-08-30T10:00:52.884Z,73.88
2018-08-30T10:03:21.366Z,72.63
2018-08-30T10:05:49.639Z,71.82
2018-08-30T10:08:17.854Z,71.25
2018-08-30T10:10:46.082Z,70.39
2018-08-30T10:13:14.355Z,70.17
2018-08-30T10:15:42.643Z,70.65
2018-08-30T10:18:10.817Z,70.13
2018-08-30T10:20:39.132Z,69.11
2018-08-30T10:23:07.741Z,68.79
2018-08-30T10:25:36.018Z,67.21
2018-08-30T10:28:10.768Z,65.56
2018-08-30T10:30:38.992Z,63.54
2018-08-30T10:33:07.313Z,60.54
2018-08-30T10:35:35.462Z,60.22
2018-08-30T10:38:03.685Z,59.48
2018-08-30T10:40:31.903Z,59.15
2018-08-30T10:43:00.140Z,60.67
2018-08-30T10:45:28.449Z,61.70
2018-08-30T10:47:56.648Z,64.97
2018-08-30T10:50:24.889Z,65.24
2018-08-30T10:52:53.228Z,65.94
2018-08-30T10:55:21.427Z,65.55
2018-08-30T10:57:49.608Z,66.96
2018-08-30T11:00:17.911Z,68.63
2018-08-30T11:02:46.647Z,69.93
2018-08-30T11:05:14.836Z,71.50
2018-08-30T11:07:43.052Z,73.17
2018-08-30T11:10:11.286Z,72.75
2018-08-30T11:12:39.552Z,72.09
2018-08-30T11:15:07.906Z,71.09
2018-08-30T11:17:36.683Z,71.86
2018-08-30T11:20:05.029Z,73.03
2018-08-30T11:22:33.295Z,72.58
2018-08-30T11:25:01.483Z,74.32
2018-08-30T11:27:29.761Z,73.52
2018-08-30T11:29:58.027Z,72.49
2018-08-30T11:32:26.322Z,73.76
2018-08-30T11:34:54.758Z,73.56
2018-08-30T11:37:23.896Z,74.17
2018-08-30T11:39:52.157Z,74.53
2018-08-30T11:42:20.453Z,73.79
2018-08-30T11:44:48.654Z,75.02
2018-08-30T11:47:16.915Z,76.15
2018-08-30T11:49:45.128Z,74.67
2018-08-30T11:52:13.445Z,75.47
2018-08-30T11:54:41.768Z,73.49
2018-08-30T11:57:10.001Z,70.49
2018-08-30T11:59:38.359Z,68.25
2018-08-30T12:02:06.659Z,66.56
2018-08-30T12:04:35.748Z,66.00
2018-08-30T12:07:04.257Z,65.17
2018-08-30T12:09:32.665Z,64.92
2018-08-30T12:12:01.480Z,63.77
2018-08-30T12:14:29.699Z,63.69
2018-08-30T12:16:57.960Z,65.10
2018-08-30T12:19:26.382Z,64.14
2018-08-30T12:21:54.760Z,64.57
2018-08-30T12:24:22.974Z,65.72
2018-08-30T12:26:51.254Z,64.66
2018-08-30T12:29:19.571Z,64.39
2018-08-30T12:31:47.913Z,65.36
2018-08-30T12:34:16.471Z,66.39
2018-08-30T12:36:44.707Z,66.32
2018-08-30T12:39:13.772Z,66.31
2018-08-30T12:41:42.204Z,67.70
2018-08-30T12:44:10.507Z,68.10
2018-08-30T12:46:38.812Z,69.00
2018-08-30T12:49:07.181Z,67.91
2018-08-30T12:51:35.660Z,67.22
2018-08-30T12:54:04.071Z,67.14
2018-08-30T12:56:32.370Z,66.78
2018-08-30T12:59:06.269Z,67.03
2018-08-30T13:01:34.782Z,65.67
2018-08-30T13:04:02.974Z,64.85
2018-08-30T13:06:31.244Z,65.53
2018-08-30T13:08:59.904Z,64.93
2018-08-30T13:11:28.055Z,65.14
2018-08-30T13:13:56.355Z,65.32
2018-08-30T13:16:24.526Z,65.12
2018-08-30T13:18:52.776Z,64.24
2018-08-30T13:21:21.213Z,63.34
2018-08-30T13:23:49.485Z,62.37
2018-08-30T13:26:17.830Z,61.67
2018-08-30T13:28:45.887Z,63.43
2018-08-30T13:31:14.298Z,62.89
2018-08-30T13:33:42.668Z,61.13
2018-08-30T13:36:11.389Z,61.03
2018-08-30T13:38:40.057Z,60.63
2018-08-30T13:41:08.831Z,60.04
2018-08-30T13:43:37.703Z,59.93
2018-08-30T13:46:05.825Z,59.42
2018-08-30T13:48:34.083Z,59.90
2018-08-30T13:51:02.308Z,60.01
2018-08-30T13:53:31.240Z,60.93
2018-08-30T13:55:59.740Z,62.07
2018-08-30T13:58:28.170Z,63.04
2018-08-30T14:00:56.420Z,63.48
2018-08-30T14:03:24.666Z,63.00
2018-08-30T14:05:52.869Z,63.08
2018-08-30T14:08:21.316Z,61.76
2018-08-30T14:10:49.906Z,63.34
2018-08-30T14:13:18.098Z,63.20
2018-08-30T14:15:46.005Z,62.81
2018-08-30T14:18:14.216Z,62.67
2018-08-30T14:20:43.315Z,62.56
2018-08-30T14:23:11.666Z,61.95
2018-08-30T14:25:40.059Z,60.15
2018-08-30T14:28:09.351Z,61.27
2018-08-30T14:30:39.273Z,61.33
2018-08-30T14:33:07.790Z,60.75
2018-08-30T14:35:48.755Z,61.59
2018-08-30T14:38:18.397Z,61.81
2018-08-30T14:40:47.006Z,61.74
2018-08-30T14:46:12.553Z,60.16
2018-08-30T14:48:40.825Z,60.26
2018-08-30T14:51:09.271Z,59.33
2018-08-30T14:53:37.921Z,59.37
2018-08-30T14:56:06.378Z,57.79
2018-08-30T14:58:39.850Z,58.11
2018-08-30T15:01:25.667Z,57.42
2018-08-30T15:04:23.866Z,57.13
2018-08-30T15:07:08.636Z,56.41
2018-08-30T15:09:40.742Z,55.20
2018-08-30T15:12:10.300Z,55.07
2018-08-30T15:14:40.104Z,55.69
2018-08-30T15:17:09.676Z,55.73
2018-08-30T15:22:16.053Z,54.57
2018-08-30T15:24:48.390Z,54.11
2018-08-30T15:27:18.493Z,53.04
2018-08-30T15:29:48.354Z,53.06
2018-08-30T15:32:20.721Z,51.23
2018-08-30T15:35:04.236Z,51.78
2018-08-30T15:40:20.092Z,54.04
2018-08-30T15:42:48.640Z,55.15
2018-08-30T15:45:29.913Z,55.39
2018-08-30T15:48:03.689Z,54.79
2018-08-30T15:50:33.906Z,54.47
2018-08-30T15:53:04.746Z,55.30
2018-08-30T15:55:34.307Z,55.52
2018-08-30T15:58:04.265Z,54.80
2018-08-30T16:00:41.550Z,55.36
2018-08-30T16:03:15.686Z,56.56
2018-08-30T16:05:44.622Z,56.30
2018-08-30T16:08:13.352Z,57.52
2018-08-30T16:10:41.770Z,57.02
2018-08-30T16:13:10.247Z,57.63
2018-08-30T16:15:38.937Z,57.36
2018-08-30T16:18:08.139Z,57.91
2018-08-30T16:20:39.407Z,58.91
2018-08-30T16:25:17.092Z,60.57
2018-08-30T16:27:46.460Z,65.36
2018-08-30T16:30:14.909Z,66.65
2018-08-30T16:32:43.533Z,68.94
2018-08-30T16:35:12.209Z,70.96
2018-08-30T16:37:41.682Z,70.10
2018-08-30T16:40:10.277Z,71.00
2018-08-30T16:42:38.646Z,71.36
2018-08-30T16:45:07.679Z,72.12
2018-08-30T16:47:36.446Z,73.44
2018-08-30T16:50:04.963Z,74.82
2018-08-30T16:52:36.436Z,72.98
2018-08-30T16:55:05.221Z,72.42
2018-08-30T16:57:33.805Z,72.80
2018-08-30T17:00:02.987Z,73.82
2018-08-30T17:02:31.985Z,73.99
2018-08-30T17:05:00.971Z,74.30
2018-08-30T17:07:29.789Z,75.03
2018-08-30T17:09:59.147Z,73.78
2018-08-30T17:12:28.146Z,75.88
2018-08-30T17:14:57.263Z,74.86
2018-08-30T17:17:27.309Z,75.26
2018-08-30T17:19:56.149Z,75.51
2018-08-30T17:22:25.539Z,75.76
2018-08-30T17:24:54.907Z,74.68
2018-08-30T17:27:24.058Z,73.77
2018-08-30T17:29:52.883Z,72.85
2018-08-30T17:32:22.162Z,72.95
2018-08-30T17:34:50.880Z,73.96
2018-08-30T17:37:19.642Z,74.87
2018-08-30T17:39:49.712Z,77.26
2018-08-30T17:42:18.439Z,76.81
2018-08-30T17:44:48.510Z,77.24
2018-08-30T17:47:18.053Z,77.54
2018-08-30T17:49:48.457Z,77.92
2018-08-30T17:52:17.440Z,76.72
2018-08-30T17:54:46.421Z,76.56
2018-08-30T17:57:16.718Z,75.62
2018-08-30T18:03:07.755Z,77.76
2018-08-30T18:05:36.719Z,78.32
2018-08-30T18:08:05.692Z,78.01
2018-08-30T18:10:37.296Z,78.14
2018-08-30T18:13:06.460Z,78.48
2018-08-30T18:15:35.369Z,77.73
2018-08-30T18:18:05.141Z,77.90
2018-08-30T18:20:35.029Z,77.59
2018-08-30T18:25:44.437Z,77.63
2018-08-30T18:28:12.718Z,78.21
2018-08-30T18:30:40.933Z,78.49
2018-08-30T18:33:09.236Z,77.34
2018-08-30T18:35:37.420Z,77.37
2018-08-30T18:38:05.669Z,78.30
2018-08-30T18:40:33.870Z,78.30
2018-08-30T18:43:02.103Z,78.50
2018-08-30T18:45:30.274Z,78.73
2018-08-30T18:47:58.456Z,77.65
2018-08-30T18:50:26.594Z,78.63
2018-08-30T18:52:54.819Z,78.67
2018-08-30T18:55:23.078Z,78.84
2018-08-30T18:57:51.285Z,78.25
2018-08-30T19:00:20.116Z,78.84
2018-08-30T19:02:48.382Z,79.01
2018-08-30T19:05:16.586Z,79.98
2018-08-30T19:07:44.699Z,80.53
2018-08-30T19:10:12.918Z,78.27
2018-08-30T19:12:41.122Z,79.02
2018-08-30T19:15:15.284Z,79.01
2018-08-30T19:17:49.370Z,78.27
2018-08-30T19:20:17.634Z,78.52
2018-08-30T19:22:45.877Z,78.17
2018-08-30T19:25:15.422Z,78.41
2018-08-30T19:27:45.246Z,78.91
2018-08-30T19:30:18.959Z,78.66
2018-08-30T19:32:48.102Z,79.13
2018-08-30T19:35:22.026Z,79.68
2018-08-30T19:37:50.295Z,80.39
2018-08-30T19:40:24.558Z,80.90
2018-08-30T19:42:52.943Z,81.49
2018-08-30T19:45:21.126Z,82.12
2018-08-30T19:47:49.481Z,83.30
2018-08-30T19:50:18.002Z,82.99
2018-08-30T19:52:46.287Z,84.12
2018-08-30T19:55:14.641Z,82.82
2018-08-30T19:57:42.808Z,82.48
2018-08-30T20:00:11.182Z,83.59
2018-08-30T20:02:39.414Z,83.90
2018-08-30T20:05:07.734Z,84.51
2018-08-30T20:07:36.180Z,84.42
2018-08-30T20:10:05.277Z,85.27
2018-08-30T20:12:33.437Z,84.41
2018-08-30T20:15:02.104Z,85.04
2018-08-30T20:17:30.294Z,84.67
2018-08-30T20:19:58.471Z,83.26
2018-08-30T20:22:26.780Z,83.99
2018-08-30T20:24:56.006Z,84.39
2018-08-30T20:27:25.168Z,84.39
2018-08-30T20:29:53.525Z,85.10
2018-08-30T20:32:22.142Z,85.09
2018-08-30T20:34:50.401Z,85.26
2018-08-30T20:37:18.671Z,84.30
2018-08-30T20:39:46.883Z,84.06
2018-08-30T20:42:15.099Z,83.07
2018-08-30T20:44:44.608Z,84.17
2018-08-30T20:47:12.791Z,83.59
2018-08-30T20:49:40.998Z,82.74
2018-08-30T20:52:09.266Z,84.01
2018-08-30T20:54:37.910Z,83.78
2018-08-30T20:57:06.207Z,83.54
2018-08-30T20:59:34.604Z,82.90
2018-08-30T21:02:02.933Z,82.03
2018-08-30T21:04:31.142Z,82.47
2018-08-30T21:06:59.353Z,82.09
2018-08-30T21:09:27.563Z,80.59
2018-08-30T21:11:55.715Z,81.64
2018-08-30T21:14:23.901Z,80.93
2018-08-30T21:16:53.989Z,81.05
2018-08-30T21:19:22.105Z,80.17
2018-08-30T21:21:50.222Z,79.66
2018-08-30T21:24:18.429Z,78.73
2018-08-30T21:26:46.608Z,78.88
2018-08-30T21:29:14.750Z,78.22
2018-08-30T21:31:42.982Z,79.03
2018-08-30T21:34:11.304Z,78.85
2018-08-30T21:36:39.492Z,79.43
2018-08-30T21:39:08.732Z,78.22
2018-08-30T21:41:36.883Z,77.53
2018-08-30T21:44:05.438Z,79.04
2018-08-30T21:46:34.782Z,80.15
2018-08-30T21:49:03.292Z,79.74
2018-08-30T21:51:31.564Z,79.58
2018-08-30T21:53:59.854Z,79.36
2018-08-30T21:56:28.340Z,78.02
2018-08-30T21:58:56.679Z,78.61
2018-08-30T22:01:25.000Z,78.56
2018-08-30T22:03:53.302Z,78.77
2018-08-30T22:06:21.884Z,79.89
2018-08-30T22:08:50.034Z,80.14
2018-08-30T22:11:18.316Z,80.57
2018-08-30T22:13:46.641Z,80.56
2018-08-30T22:16:15.000Z,80.47
2018-08-30T22:18:43.377Z,81.03
2018-08-30T22:21:11.574Z,80.40
2018-08-30T22:23:39.682Z,79.46
2018-08-30T22:26:07.980Z,79.21
2018-08-30T22:28:36.079Z,79.52
2018-08-30T22:31:04.551Z,79.66
2018-08-30T22:33:32.715Z,80.97
2018-08-30T22:36:01.485Z,80.99
2018-08-30T22:38:29.620Z,81.15
2018-08-30T22:40:57.808Z,79.94
2018-08-30T22:43:25.971Z,81.13
2018-08-30T22:45:54.274Z,79.35
2018-08-30T22:48:23.188Z,80.37
2018-08-30T22:50:51.326Z,80.30
2018-08-30T22:53:19.581Z,79.91
2018-08-30T22:55:47.889Z,80.53
2018-08-30T22:58:16.114Z,81.18
2018-08-30T23:00:44.263Z,80.12
2018-08-30T23:03:12.715Z,81.06
2018-08-30T23:05:41.609Z,81.98
2018-08-30T23:08:10.413Z,82.31
2018-08-30T23:10:38.724Z,82.08
2018-08-30T23:13:07.485Z,81.88
2018-08-30T23:15:35.748Z,81.76
2018-08-30T23:18:04.021Z,81.23
2018-08-30T23:20:32.208Z,81.59
2018-08-30T23:23:00.636Z,80.96
2018-08-30T23:25:28.767Z,81.10
2018-08-30T23:27:57.102Z,82.07
2018-08-30T23:30:25.629Z,82.80
2018-08-30T23:32:53.929Z,81.66
2018-08-30T23:35:22.201Z,81.33
2018-08-30T23:37:50.557Z,81.30
2018-08-30T23:40:18.973Z,81.91
2018-08-30T23:42:47.385Z,82.00
2018-08-30T23:45:15.652Z,82.75
2018-08-30T23:47:43.950Z,83.45
2018-08-30T23:50:12.160Z,83.67
2018-08-30T23:52:40.519Z,83.91
2018-08-30T23:55:08.904Z,84.52
2018-08-30T23:58:48.008Z,84.91
